createdAt,value
2016-09-06T00:00:28.407Z,-51
2016-09-06T00:01:28.354Z,-51
2016-09-06T00:02:28.391Z,-51
2016-09-06T00:03:28.363Z,-51
2016-09-06T00:04:28.354Z,-51
2016-09-06T00:05:28.356Z,-51
2016-09-06T00:06:28.368Z,-50
2016-09-06T00:07:28.334Z,-51
2016-09-06T00:08:28.386Z,-53
2016-09-06T00:09:28.373Z,-51
2016-09-06T00:10:28.370Z,-51
2016-09-06T00:11:28.337Z,-53
2016-09-06T00:12:28.369Z,-53
2016-09-06T00:13:28.323Z,-53
2016-09-06T00:14:28.385Z,-50
2016-09-06T00:15:28.376Z,-51
2016-09-06T00:16:28.325Z,-51
2016-09-06T00:17:28.316Z,-52
2016-09-06T00:18:28.371Z,-50
2016-09-06T00:19:28.388Z,-51
2016-09-06T00:20:28.359Z,-52
2016-09-06T00:21:28.357Z,-51
2016-09-06T00:22:28.373Z,-51
2016-09-06T00:23:28.392Z,-53
2016-09-06T00:24:28.338Z,-54
2016-09-06T00:25:28.400Z,-52
2016-09-06T00:26:28.385Z,-51
2016-09-06T00:27:28.364Z,-52
2016-09-06T00:28:28.349Z,-52
2016-09-06T00:29:28.377Z,-52
2016-09-06T00:30:28.356Z,-51
2016-09-06T00:31:28.341Z,-52
2016-09-06T00:32:28.368Z,-51
2016-09-06T00:33:28.401Z,-50
2016-09-06T00:34:28.385Z,-50
2016-09-06T00:35:28.356Z,-50
2016-09-06T00:36:28.365Z,-51
2016-09-06T00:37:28.375Z,-51
2016-09-06T00:38:28.380Z,-51
2016-09-06T00:39:28.376Z,-50
2016-09-06T00:40:28.384Z,-50
2016-09-06T00:41:28.357Z,-50
2016-09-06T00:42:28.347Z,-50
2016-09-06T00:43:28.356Z,-50
2016-09-06T00:44:28.411Z,-50
2016-09-06T00:45:28.369Z,-51
2016-09-06T00:46:28.352Z,-51
2016-09-06T00:47:28.382Z,-50
2016-09-06T00:48:28.382Z,-50
2016-09-06T00:49:28.385Z,-51
2016-09-06T00:50:28.376Z,-51
2016-09-06T00:51:28.401Z,-50
2016-09-06T00:52:29.425Z,-50
2016-09-06T00:53:28.389Z,-47
2016-09-06T00:54:28.427Z,-51
2016-09-06T00:55:28.431Z,-50
2016-09-06T00:56:28.419Z,-50
2016-09-06T00:57:28.402Z,-50
2016-09-06T00:58:28.386Z,-50
2016-09-06T00:59:28.405Z,-48
2016-09-06T01:00:28.431Z,-49
2016-09-06T01:01:28.463Z,-49
2016-09-06T01:02:28.677Z,-49
2016-09-06T01:03:28.481Z,-46
2016-09-06T01:04:28.451Z,-50
2016-09-06T01:05:28.492Z,-50
2016-09-06T01:06:28.478Z,-50
2016-09-06T01:07:28.402Z,-49
2016-09-06T01:08:28.496Z,-49
2016-09-06T01:09:28.529Z,-49
2016-09-06T01:10:28.435Z,-50
2016-09-06T01:11:28.431Z,-51
2016-09-06T01:12:28.451Z,-48
2016-09-06T01:13:28.429Z,-51
2016-09-06T01:14:28.431Z,-51
2016-09-06T01:15:28.460Z,-51
2016-09-06T01:16:28.402Z,-51
2016-09-06T01:17:28.414Z,-51
2016-09-06T01:18:28.413Z,-51
2016-09-06T01:19:28.437Z,-51
2016-09-06T01:20:28.387Z,-51
2016-09-06T01:21:28.406Z,-52
2016-09-06T01:22:28.456Z,-48
2016-09-06T01:23:28.450Z,-50
2016-09-06T01:24:28.403Z,-52
2016-09-06T01:25:28.422Z,-49
2016-09-06T01:26:28.555Z,-50
2016-09-06T01:27:28.447Z,-49
2016-09-06T01:28:28.432Z,-50
2016-09-06T01:29:28.433Z,-50
2016-09-06T01:30:28.432Z,-50
2016-09-06T01:31:28.445Z,-51
2016-09-06T01:32:28.434Z,-51
2016-09-06T01:33:28.433Z,-51
2016-09-06T01:34:28.457Z,-50
2016-09-06T01:35:28.461Z,-51
2016-09-06T01:36:28.424Z,-51
2016-09-06T01:37:28.433Z,-50
2016-09-06T01:38:28.432Z,-50
2016-09-06T01:39:28.446Z,-51
2016-09-06T01:40:28.441Z,-49
2016-09-06T01:41:28.403Z,-50
2016-09-06T01:42:28.503Z,-50
2016-09-06T01:43:28.419Z,-49
2016-09-06T01:44:28.446Z,-49
2016-09-06T01:45:28.434Z,-51
2016-09-06T01:46:28.448Z,-51
2016-09-06T01:47:28.580Z,-50
2016-09-06T01:48:28.482Z,-50
2016-09-06T01:49:28.491Z,-49
2016-09-06T01:50:28.439Z,-49
2016-09-06T01:51:28.415Z,-46
2016-09-06T01:52:28.539Z,-49
2016-09-06T01:53:28.472Z,-49
2016-09-06T01:54:28.448Z,-49
2016-09-06T01:55:28.465Z,-49
2016-09-06T01:56:28.465Z,-50
2016-09-06T01:57:28.461Z,-49
2016-09-06T01:58:28.465Z,-49
2016-09-06T01:59:28.435Z,-49
2016-09-06T02:00:28.419Z,-49
2016-09-06T02:01:28.448Z,-49
2016-09-06T02:02:28.435Z,-50
2016-09-06T02:03:28.495Z,-50
2016-09-06T02:04:28.435Z,-50
2016-09-06T02:05:28.449Z,-49
2016-09-06T02:06:28.447Z,-49
2016-09-06T02:07:28.436Z,-50
2016-09-06T02:08:28.461Z,-51
2016-09-06T02:09:28.434Z,-51
2016-09-06T02:10:28.426Z,-51
2016-09-06T02:11:28.448Z,-52
2016-09-06T02:12:28.487Z,-52
2016-09-06T02:13:28.463Z,-51
2016-09-06T02:14:28.466Z,-51
2016-09-06T02:15:28.449Z,-48
2016-09-06T02:16:28.523Z,-50
2016-09-06T02:17:28.525Z,-52
2016-09-06T02:18:28.517Z,-52
2016-09-06T02:19:28.478Z,-53
2016-09-06T02:20:28.454Z,-51
2016-09-06T02:21:28.466Z,-51
2016-09-06T02:22:28.596Z,-53
2016-09-06T02:23:28.485Z,-50
2016-09-06T02:24:28.482Z,-52
2016-09-06T02:25:28.468Z,-51
2016-09-06T02:26:28.517Z,-49
2016-09-06T02:27:28.501Z,-49
2016-09-06T02:28:28.478Z,-48
2016-09-06T02:29:28.484Z,-50
2016-09-06T02:30:28.498Z,-50
2016-09-06T02:31:28.514Z,-48
2016-09-06T02:32:28.472Z,-51
2016-09-06T02:33:28.503Z,-50
2016-09-06T02:34:28.515Z,-51
2016-09-06T02:35:28.485Z,-51
2016-09-06T02:36:28.521Z,-51
2016-09-06T02:37:28.542Z,-50
2016-09-06T02:38:28.545Z,-52
2016-09-06T02:39:28.528Z,-51
2016-09-06T02:40:28.497Z,-50
2016-09-06T02:41:28.531Z,-50
2016-09-06T02:42:28.516Z,-51
2016-09-06T02:43:28.504Z,-49
2016-09-06T02:44:28.512Z,-51
2016-09-06T02:45:28.479Z,-51
2016-09-06T02:46:28.511Z,-50
2016-09-06T02:47:28.502Z,-51
2016-09-06T02:48:28.520Z,-50
2016-09-06T02:49:28.528Z,-50
2016-09-06T02:50:28.522Z,-50
2016-09-06T02:51:28.532Z,-50
2016-09-06T02:52:28.562Z,-49
2016-09-06T02:53:28.511Z,-50
2016-09-06T02:54:28.499Z,-50
2016-09-06T02:55:28.499Z,-50
2016-09-06T02:56:28.514Z,-50
2016-09-06T02:57:28.513Z,-50
2016-09-06T02:58:28.513Z,-50
2016-09-06T02:59:28.514Z,-50
2016-09-06T03:00:28.512Z,-50
2016-09-06T03:01:28.540Z,-49
2016-09-06T03:02:28.602Z,-50
2016-09-06T03:03:28.501Z,-51
2016-09-06T03:04:28.529Z,-51
2016-09-06T03:05:28.484Z,-51
2016-09-06T03:06:28.555Z,-51
2016-09-06T03:07:28.558Z,-49
2016-09-06T03:08:28.509Z,-49
2016-09-06T03:09:28.546Z,-50
2016-09-06T03:10:28.504Z,-50
2016-09-06T03:11:28.528Z,-50
2016-09-06T03:12:28.499Z,-50
2016-09-06T03:13:28.573Z,-49
2016-09-06T03:14:28.516Z,-49
2016-09-06T03:15:28.515Z,-49
2016-09-06T03:16:28.545Z,-49
2016-09-06T03:17:28.509Z,-49
2016-09-06T03:18:28.550Z,-50
2016-09-06T03:19:28.502Z,-51
2016-09-06T03:20:28.544Z,-52
2016-09-06T03:21:28.548Z,-51
2016-09-06T03:22:28.547Z,-50
2016-09-06T03:23:28.515Z,-51
2016-09-06T03:24:28.521Z,-49
2016-09-06T03:25:28.552Z,-50
2016-09-06T03:26:28.600Z,-50
2016-09-06T03:27:28.492Z,-50
2016-09-06T03:28:28.529Z,-50
2016-09-06T03:29:28.516Z,-50
2016-09-06T03:30:28.544Z,-52
2016-09-06T03:31:28.535Z,-52
2016-09-06T03:32:28.522Z,-53
2016-09-06T03:33:28.531Z,-50
2016-09-06T03:34:28.499Z,-51
2016-09-06T03:35:28.551Z,-49
2016-09-06T03:36:28.519Z,-52
2016-09-06T03:37:28.498Z,-52
2016-09-06T03:38:28.579Z,-53
2016-09-06T03:39:28.545Z,-52
2016-09-06T03:40:28.578Z,-52
2016-09-06T03:41:28.561Z,-52
2016-09-06T03:42:28.547Z,-53
2016-09-06T03:43:28.548Z,-53
2016-09-06T03:44:28.561Z,-50
2016-09-06T03:45:28.548Z,-51
2016-09-06T03:46:28.545Z,-50
2016-09-06T03:47:28.574Z,-50
2016-09-06T03:48:29.212Z,-50
2016-09-06T03:49:28.535Z,-50
2016-09-06T03:50:28.576Z,-50
2016-09-06T03:51:28.562Z,-51
2016-09-06T03:52:28.592Z,-50
2016-09-06T03:53:28.533Z,-52
2016-09-06T03:54:28.575Z,-52
2016-09-06T03:55:28.531Z,-52
2016-09-06T03:56:28.545Z,-52
2016-09-06T03:57:28.543Z,-52
2016-09-06T03:58:28.576Z,-50
2016-09-06T03:59:28.546Z,-50
2016-09-06T04:00:28.546Z,-50
2016-09-06T04:01:28.596Z,-49
2016-09-06T04:02:28.562Z,-50
2016-09-06T04:03:28.574Z,-50
2016-09-06T04:04:28.553Z,-51
2016-09-06T04:05:28.545Z,-48
2016-09-06T04:06:28.606Z,-48
2016-09-06T04:07:28.567Z,-50
2016-09-06T04:08:28.581Z,-50
2016-09-06T04:09:28.552Z,-49
2016-09-06T04:10:28.592Z,-50
2016-09-06T04:11:28.567Z,-50
2016-09-06T04:12:28.589Z,-51
2016-09-06T04:13:28.563Z,-50
2016-09-06T04:14:28.569Z,-51
2016-09-06T04:15:28.561Z,-47
2016-09-06T04:16:28.598Z,-50
2016-09-06T04:17:28.561Z,-50
2016-09-06T04:18:28.683Z,-50
2016-09-06T04:19:28.623Z,-49
2016-09-06T04:20:28.580Z,-50
2016-09-06T04:21:28.562Z,-49
2016-09-06T04:22:28.615Z,-47
2016-09-06T04:23:28.633Z,-49
2016-09-06T04:24:28.641Z,-50
2016-09-06T04:25:28.611Z,-48
2016-09-06T04:26:28.612Z,-51
2016-09-06T04:27:28.754Z,-52
2016-09-06T04:28:28.636Z,-50
2016-09-06T04:29:28.602Z,-49
2016-09-06T04:30:28.561Z,-49
2016-09-06T04:31:28.614Z,-46
2016-09-06T04:32:28.631Z,-49
2016-09-06T04:33:28.612Z,-50
2016-09-06T04:34:28.592Z,-49
2016-09-06T04:35:28.580Z,-50
2016-09-06T04:36:28.629Z,-49
2016-09-06T04:37:28.605Z,-49
2016-09-06T04:38:28.607Z,-50
2016-09-06T04:39:28.609Z,-49
2016-09-06T04:40:28.618Z,-49
2016-09-06T04:41:28.590Z,-52
2016-09-06T04:42:28.807Z,-49
2016-09-06T04:43:28.894Z,-49
2016-09-06T04:44:28.868Z,-49
2016-09-06T04:45:28.631Z,-49
2016-09-06T04:46:28.609Z,-49
2016-09-06T04:47:28.574Z,-50
2016-09-06T04:48:28.597Z,-51
2016-09-06T04:49:28.648Z,-51
2016-09-06T04:50:28.577Z,-49
2016-09-06T04:51:28.569Z,-50
2016-09-06T04:52:28.639Z,-50
2016-09-06T04:53:28.566Z,-49
2016-09-06T04:54:28.608Z,-49
2016-09-06T04:55:28.623Z,-49
2016-09-06T04:56:28.610Z,-51
2016-09-06T04:57:28.603Z,-51
2016-09-06T04:58:28.595Z,-51
2016-09-06T04:59:28.600Z,-50
2016-09-06T05:00:28.668Z,-50
2016-09-06T05:01:28.668Z,-49
2016-09-06T05:02:28.593Z,-50
2016-09-06T05:03:28.642Z,-50
2016-09-06T05:04:28.595Z,-50
2016-09-06T05:05:28.611Z,-51
2016-09-06T05:06:28.608Z,-51
2016-09-06T05:07:28.675Z,-50
2016-09-06T05:08:28.610Z,-50
2016-09-06T05:09:28.700Z,-51
2016-09-06T05:10:28.619Z,-50
2016-09-06T05:11:28.627Z,-50
2016-09-06T05:12:28.578Z,-48
2016-09-06T05:13:28.669Z,-49
2016-09-06T05:14:28.627Z,-49
2016-09-06T05:15:28.655Z,-51
2016-09-06T05:16:28.610Z,-51
2016-09-06T05:17:28.610Z,-50
2016-09-06T05:18:28.631Z,-50
2016-09-06T05:19:28.609Z,-51
2016-09-06T05:20:28.597Z,-51
2016-09-06T05:21:28.605Z,-50
2016-09-06T05:22:28.637Z,-50
2016-09-06T05:23:28.597Z,-50
2016-09-06T05:24:28.676Z,-50
2016-09-06T05:25:28.640Z,-51
2016-09-06T05:26:28.639Z,-49
2016-09-06T05:27:28.641Z,-52
2016-09-06T05:28:28.701Z,-52
2016-09-06T05:29:28.661Z,-51
2016-09-06T05:30:28.746Z,-50
2016-09-06T05:31:28.628Z,-50
2016-09-06T05:32:28.681Z,-50
2016-09-06T05:33:28.643Z,-49
2016-09-06T05:34:28.694Z,-50
2016-09-06T05:35:28.630Z,-50
2016-09-06T05:36:28.657Z,-49
2016-09-06T05:37:28.664Z,-50
2016-09-06T05:38:28.685Z,-49
2016-09-06T05:39:28.661Z,-50
2016-09-06T05:40:28.630Z,-50
2016-09-06T05:41:28.658Z,-50
2016-09-06T05:42:28.732Z,-50
2016-09-06T05:43:28.659Z,-51
2016-09-06T05:44:28.646Z,-49
2016-09-06T05:45:28.676Z,-50
2016-09-06T05:46:28.689Z,-49
2016-09-06T05:47:28.651Z,-49
2016-09-06T05:48:28.707Z,-49
2016-09-06T05:49:28.653Z,-50
2016-09-06T05:50:28.675Z,-50
2016-09-06T05:51:28.664Z,-49
2016-09-06T05:52:28.718Z,-50
2016-09-06T05:53:28.721Z,-49
2016-09-06T05:54:28.658Z,-47
2016-09-06T05:55:28.676Z,-49
2016-09-06T05:56:28.683Z,-48
2016-09-06T05:57:28.732Z,-50
2016-09-06T05:58:28.709Z,-49
2016-09-06T05:59:28.781Z,-49
2016-09-06T06:00:28.673Z,-50
2016-09-06T06:01:28.733Z,-50
2016-09-06T06:02:28.782Z,-47
2016-09-06T06:03:28.700Z,-50
2016-09-06T06:04:28.764Z,-50
2016-09-06T06:05:28.712Z,-50
2016-09-06T06:06:28.703Z,-50
2016-09-06T06:07:28.673Z,-50
2016-09-06T06:08:28.673Z,-50
2016-09-06T06:09:28.668Z,-53
2016-09-06T06:10:28.664Z,-52
2016-09-06T06:11:28.765Z,-52
2016-09-06T06:12:28.736Z,-50
2016-09-06T06:13:28.662Z,-50
2016-09-06T06:14:28.646Z,-49
2016-09-06T06:15:28.736Z,-49
2016-09-06T06:16:28.729Z,-50
2016-09-06T06:17:28.721Z,-49
2016-09-06T06:18:28.682Z,-46
2016-09-06T06:19:28.668Z,-49
2016-09-06T06:20:28.676Z,-49
2016-09-06T06:21:28.672Z,-49
2016-09-06T06:22:28.674Z,-49
2016-09-06T06:23:28.693Z,-50
2016-09-06T06:24:28.693Z,-52
2016-09-06T06:25:28.674Z,-52
2016-09-06T06:26:28.711Z,-49
2016-09-06T06:27:28.646Z,-51
2016-09-06T06:28:28.765Z,-51
2016-09-06T06:29:28.673Z,-51
2016-09-06T06:30:28.658Z,-50
2016-09-06T06:31:28.675Z,-51
2016-09-06T06:32:28.726Z,-50
2016-09-06T06:33:28.662Z,-51
2016-09-06T06:34:28.676Z,-51
2016-09-06T06:35:28.680Z,-52
2016-09-06T06:36:28.748Z,-50
2016-09-06T06:37:29.389Z,-48
2016-09-06T06:38:28.699Z,-53
2016-09-06T06:39:28.672Z,-53
2016-09-06T06:40:28.673Z,-50
2016-09-06T06:41:28.660Z,-51
2016-09-06T06:42:28.829Z,-52
2016-09-06T06:43:28.718Z,-51
2016-09-06T06:44:28.752Z,-51
2016-09-06T06:45:29.652Z,-51
2016-09-06T06:46:29.771Z,-50
2016-09-06T06:47:29.487Z,-51
2016-09-06T06:48:28.782Z,-50
2016-09-06T06:49:29.503Z,-51
2016-09-06T06:50:28.721Z,-47
2016-09-06T06:51:28.782Z,-51
2016-09-06T06:52:29.782Z,-51
2016-09-06T06:53:29.853Z,-51
2016-09-06T06:54:30.638Z,-51
2016-09-06T06:55:29.653Z,-48
2016-09-06T06:56:29.850Z,-53
2016-09-06T06:57:30.992Z,-50
2016-09-06T06:58:28.877Z,-49
2016-09-06T06:59:28.825Z,-50
2016-09-06T07:00:29.271Z,-49
2016-09-06T07:01:30.196Z,-51
2016-09-06T07:02:28.708Z,-50
2016-09-06T07:03:28.693Z,-50
2016-09-06T07:04:28.709Z,-51
2016-09-06T07:05:28.770Z,-51
2016-09-06T07:06:28.754Z,-51
2016-09-06T07:07:28.706Z,-50
2016-09-06T07:08:28.717Z,-50
2016-09-06T07:09:28.724Z,-49
2016-09-06T07:10:28.726Z,-50
2016-09-06T07:11:28.732Z,-50
2016-09-06T07:12:29.098Z,-52
2016-09-06T07:13:28.720Z,-49
2016-09-06T07:14:28.745Z,-49
2016-09-06T07:15:28.724Z,-49
2016-09-06T07:16:28.718Z,-49
2016-09-06T07:17:28.737Z,-50
2016-09-06T07:18:28.748Z,-51
2016-09-06T07:19:28.772Z,-47
2016-09-06T07:20:29.489Z,-50
2016-09-06T07:21:28.725Z,-48
2016-09-06T07:22:29.225Z,-52
2016-09-06T07:27:45.928Z,-49
2016-09-06T07:27:56.174Z,-50
2016-09-06T07:28:57.553Z,-52
2016-09-06T07:29:55.947Z,-53
2016-09-06T07:30:56.870Z,-50
2016-09-06T07:31:55.798Z,-50
2016-09-06T07:32:55.834Z,-50
2016-09-06T07:33:55.846Z,-50
2016-09-06T07:34:56.205Z,-50
2016-09-06T07:35:56.012Z,-52
2016-09-06T07:36:55.823Z,-52
2016-09-06T07:37:55.815Z,-51
2016-09-06T07:38:55.829Z,-51
2016-09-06T07:39:55.993Z,-51
2016-09-06T07:40:55.954Z,-51
2016-09-06T07:41:56.245Z,-53
2016-09-06T07:42:56.040Z,-52
2016-09-06T07:43:55.845Z,-52
2016-09-06T07:44:55.858Z,-53
2016-09-06T07:45:56.625Z,-52
2016-09-06T07:46:56.272Z,-53
2016-09-06T07:47:56.429Z,-48
2016-09-06T07:48:55.831Z,-51
2016-09-06T07:49:56.899Z,-54
2016-09-06T07:50:57.467Z,-49
2016-09-06T07:51:55.864Z,-49
2016-09-06T07:52:55.892Z,-50
2016-09-06T07:53:55.878Z,-52
2016-09-06T07:54:55.829Z,-52
2016-09-06T07:55:55.829Z,-51
2016-09-06T07:56:55.836Z,-50
2016-09-06T07:57:55.815Z,-49
2016-09-06T07:58:55.876Z,-50
2016-09-06T07:59:55.839Z,-49
2016-09-06T08:00:55.860Z,-49
2016-09-06T08:01:55.888Z,-49
2016-09-06T08:02:55.903Z,-47
2016-09-06T08:03:55.861Z,-48
2016-09-06T08:04:55.852Z,-46
2016-09-06T08:05:56.639Z,-51
2016-09-06T08:06:56.907Z,-49
2016-09-06T08:07:57.105Z,-52
2016-09-06T08:08:56.339Z,-51
2016-09-06T08:09:55.861Z,-49
2016-09-06T08:10:57.467Z,-49
2016-09-06T08:11:57.561Z,-51
2016-09-06T08:12:55.858Z,-51
2016-09-06T08:13:57.294Z,-50
2016-09-06T08:14:55.894Z,-49
2016-09-06T08:15:56.747Z,-51
2016-09-06T08:16:57.893Z,-47
2016-09-06T08:17:56.491Z,-49
2016-09-06T08:18:56.462Z,-47
2016-09-06T08:19:56.973Z,-52
2016-09-06T08:20:55.945Z,-50
2016-09-06T08:21:56.966Z,-50
2016-09-06T08:22:55.931Z,-48
2016-09-06T08:23:56.137Z,-51
2016-09-06T08:24:55.890Z,-51
2016-09-06T08:25:56.613Z,-52
2016-09-06T08:26:55.954Z,-54
2016-09-06T08:27:55.889Z,-53
2016-09-06T08:28:55.967Z,-49
2016-09-06T08:29:58.146Z,-52
2016-09-06T08:30:55.891Z,-51
2016-09-06T08:31:55.882Z,-50
2016-09-06T08:32:58.999Z,-54
2016-09-06T08:33:55.878Z,-55
2016-09-06T08:34:55.908Z,-52
2016-09-06T08:35:56.525Z,-54
2016-09-06T08:36:55.891Z,-54
2016-09-06T08:37:56.434Z,-54
2016-09-06T08:38:55.891Z,-52
2016-09-06T08:39:55.911Z,-52
2016-09-06T08:40:55.890Z,-54
2016-09-06T08:41:56.260Z,-55
2016-09-06T08:42:56.568Z,-55
2016-09-06T08:43:55.925Z,-55
2016-09-06T08:44:55.920Z,-54
2016-09-06T08:45:56.718Z,-55
2016-09-06T08:46:56.192Z,-56
2016-09-06T08:47:55.909Z,-57
2016-09-06T08:48:55.981Z,-53
2016-09-06T08:49:55.913Z,-53
2016-09-06T08:50:55.967Z,-51
2016-09-06T08:51:55.895Z,-50
2016-09-06T08:52:55.945Z,-53
2016-09-06T08:53:55.892Z,-53
2016-09-06T08:54:55.990Z,-50
2016-09-06T08:55:55.878Z,-50
2016-09-06T08:56:55.942Z,-51
2016-09-06T08:57:56.320Z,-51
2016-09-06T08:58:55.910Z,-51
2016-09-06T08:59:56.342Z,-53
2016-09-06T09:00:55.922Z,-53
2016-09-06T09:01:57.122Z,-52
2016-09-06T09:02:56.112Z,-52
2016-09-06T09:03:55.927Z,-53
2016-09-06T09:04:56.043Z,-54
2016-09-06T09:05:55.971Z,-52
2016-09-06T09:06:56.163Z,-53
2016-09-06T09:07:55.928Z,-53
2016-09-06T09:08:56.283Z,-51
2016-09-06T09:09:55.960Z,-49
2016-09-06T09:10:55.937Z,-53
2016-09-06T09:11:55.915Z,-53
2016-09-06T09:12:55.932Z,-51
2016-09-06T09:13:56.145Z,-52
2016-09-06T09:14:55.911Z,-53
2016-09-06T09:15:56.003Z,-52
2016-09-06T09:16:55.904Z,-53
2016-09-06T09:18:27.613Z,-49
2016-09-06T09:19:09.053Z,-50
2016-09-06T09:20:20.303Z,-50
2016-09-06T09:20:56.213Z,-51
2016-09-06T09:21:55.927Z,-51
2016-09-06T09:23:02.551Z,-52
2016-09-06T09:24:35.136Z,-53
2016-09-06T09:25:43.208Z,-49
2016-09-06T09:26:27.059Z,-51
2016-09-06T09:27:57.768Z,-50
2016-09-06T09:28:41.835Z,-50
2016-09-06T09:29:26.033Z,-50
2016-09-06T09:31:23.350Z,-50
2016-09-06T09:32:08.805Z,-48
2016-09-06T09:33:47.647Z,-49
2016-09-06T09:33:57.546Z,-49
2016-09-06T09:34:57.549Z,-46
2016-09-06T09:35:58.659Z,-46
2016-09-06T09:36:57.563Z,-51
2016-09-06T09:37:57.620Z,-50
2016-09-06T09:38:59.204Z,-49
2016-09-06T09:39:58.582Z,-52
2016-09-06T09:41:57.714Z,-51
2016-09-06T09:42:57.660Z,-49
2016-09-06T09:43:59.549Z,-52
2016-09-06T09:44:57.629Z,-51
2016-09-06T09:45:57.570Z,-50
2016-09-06T09:46:58.402Z,-54
2016-09-06T09:47:57.638Z,-50
2016-09-06T09:48:58.304Z,-53
2016-09-06T09:49:58.869Z,-53
2016-09-06T09:50:57.624Z,-51
2016-09-06T09:51:58.378Z,-51
2016-09-06T09:52:58.954Z,-52
2016-09-06T09:53:57.580Z,-53
2016-09-06T09:54:57.534Z,-53
2016-09-06T09:55:57.592Z,-53
2016-09-06T09:56:57.571Z,-51
2016-09-06T09:57:57.591Z,-52
2016-09-06T09:58:57.594Z,-54
2016-09-06T09:59:57.620Z,-54
2016-09-06T10:00:57.579Z,-54
2016-09-06T10:01:58.374Z,-52
2016-09-06T10:02:57.707Z,-50
2016-09-06T10:03:58.668Z,-53
2016-09-06T10:04:57.744Z,-55
2016-09-06T10:05:58.361Z,-53
2016-09-06T10:06:57.776Z,-54
2016-09-06T10:07:57.755Z,-54
2016-09-06T10:08:59.627Z,-54
2016-09-06T10:09:57.623Z,-53
2016-09-06T10:10:57.582Z,-51
2016-09-06T10:11:57.567Z,-53
2016-09-06T10:12:57.799Z,-54
2016-09-06T10:13:57.612Z,-55
2016-09-06T10:14:57.650Z,-56
2016-09-06T10:15:57.635Z,-53
2016-09-06T10:16:57.650Z,-53
2016-09-06T10:17:57.613Z,-53
2016-09-06T10:18:57.619Z,-53
2016-09-06T10:19:57.646Z,-52
2016-09-06T10:20:57.598Z,-53
2016-09-06T10:21:58.117Z,-53
2016-09-06T10:22:58.518Z,-52
2016-09-06T10:23:58.854Z,-56
2016-09-06T10:24:58.628Z,-54
2016-09-06T10:25:58.267Z,-53
2016-09-06T10:26:59.475Z,-52
2016-09-06T10:27:58.208Z,-53
2016-09-06T10:28:57.899Z,-55
2016-09-06T10:29:58.444Z,-52
2016-09-06T10:30:57.954Z,-51
2016-09-06T10:31:58.504Z,-55
2016-09-06T10:32:58.983Z,-54
2016-09-06T10:33:58.974Z,-52
2016-09-06T10:35:00.002Z,-59
2016-09-06T10:35:58.443Z,-54
2016-09-06T10:36:58.080Z,-54
2016-09-06T10:38:01.073Z,-52
2016-09-06T10:38:59.419Z,-51
2016-09-06T10:39:58.405Z,-51
2016-09-06T10:40:59.791Z,-54
2016-09-06T10:41:59.145Z,-53
2016-09-06T10:42:57.900Z,-52
2016-09-06T10:43:57.875Z,-50
2016-09-06T10:44:57.997Z,-52
2016-09-06T10:45:57.862Z,-53
2016-09-06T10:46:57.840Z,-50
2016-09-06T10:47:57.944Z,-53
2016-09-06T10:48:57.887Z,-56
2016-09-06T10:49:58.005Z,-54
2016-09-06T10:50:57.806Z,-53
2016-09-06T10:51:57.958Z,-55
2016-09-06T10:52:58.160Z,-56
2016-09-06T10:53:57.959Z,-56
2016-09-06T10:54:57.885Z,-52
2016-09-06T10:55:58.046Z,-52
2016-09-06T10:56:58.245Z,-56
2016-09-06T10:57:58.750Z,-53
2016-09-06T10:58:57.932Z,-56
2016-09-06T10:59:57.913Z,-55
2016-09-06T11:00:58.062Z,-54
2016-09-06T11:01:57.922Z,-56
2016-09-06T11:02:58.188Z,-54
2016-09-06T11:03:58.188Z,-54
2016-09-06T11:04:58.193Z,-55
2016-09-06T11:05:58.296Z,-54
2016-09-06T11:06:58.292Z,-56
2016-09-06T11:07:58.318Z,-51
2016-09-06T11:08:59.440Z,-57
2016-09-06T11:09:58.223Z,-53
2016-09-06T11:10:58.095Z,-55
2016-09-06T11:11:57.836Z,-56
2016-09-06T11:12:57.971Z,-54
2016-09-06T11:13:57.978Z,-54
2016-09-06T11:14:57.767Z,-54
2016-09-06T11:15:57.775Z,-53
2016-09-06T11:16:57.764Z,-55
2016-09-06T11:17:57.811Z,-52
2016-09-06T11:18:57.834Z,-54
2016-09-06T11:19:57.776Z,-52
2016-09-06T11:20:57.822Z,-54
2016-09-06T11:21:57.801Z,-54
2016-09-06T11:22:57.886Z,-57
2016-09-06T11:23:57.794Z,-57
2016-09-06T11:24:57.843Z,-52
2016-09-06T11:25:57.844Z,-53
2016-09-06T11:26:57.799Z,-53
2016-09-06T11:27:57.857Z,-53
2016-09-06T11:28:57.747Z,-53
2016-09-06T11:29:57.776Z,-52
2016-09-06T11:30:57.777Z,-52
2016-09-06T11:31:57.777Z,-52
2016-09-06T11:32:57.749Z,-54
2016-09-06T11:33:57.805Z,-54
2016-09-06T11:34:57.793Z,-53
2016-09-06T11:35:57.691Z,-53
2016-09-06T11:36:57.764Z,-52
2016-09-06T11:37:57.857Z,-51
2016-09-06T11:38:57.824Z,-54
2016-09-06T11:39:57.896Z,-50
2016-09-06T11:40:58.304Z,-54
2016-09-06T11:41:57.962Z,-53
2016-09-06T11:42:57.851Z,-54
2016-09-06T11:43:57.891Z,-50
2016-09-06T11:44:57.898Z,-53
2016-09-06T11:45:57.879Z,-53
2016-09-06T11:46:57.797Z,-53
2016-09-06T11:47:57.831Z,-52
2016-09-06T11:48:57.920Z,-54
2016-09-06T11:49:58.078Z,-51
2016-09-06T11:50:59.230Z,-52
2016-09-06T11:51:58.420Z,-53
2016-09-06T11:52:58.179Z,-54
2016-09-06T11:53:58.298Z,-54
2016-09-06T11:54:58.181Z,-55
2016-09-06T11:55:58.104Z,-52
2016-09-06T11:56:58.227Z,-54
2016-09-06T11:57:58.244Z,-53
2016-09-06T11:58:57.751Z,-54
2016-09-06T11:59:58.347Z,-50
2016-09-06T12:00:58.315Z,-53
2016-09-06T12:01:58.232Z,-52
2016-09-06T12:02:58.305Z,-54
2016-09-06T12:03:59.024Z,-54
2016-09-06T12:04:58.162Z,-52
2016-09-06T12:05:58.220Z,-54
2016-09-06T12:06:58.412Z,-54
2016-09-06T12:07:58.179Z,-56
2016-09-06T12:08:58.379Z,-55
2016-09-06T12:09:58.346Z,-54
2016-09-06T12:10:58.287Z,-53
2016-09-06T12:11:58.281Z,-52
2016-09-06T12:12:58.599Z,-53
2016-09-06T12:13:58.591Z,-53
2016-09-06T12:14:58.481Z,-52
2016-09-06T12:15:58.355Z,-53
2016-09-06T12:16:58.438Z,-53
2016-09-06T12:17:58.248Z,-52
2016-09-06T12:18:58.286Z,-55
2016-09-06T12:19:58.128Z,-49
2016-09-06T12:20:59.042Z,-54
2016-09-06T12:21:58.636Z,-55
2016-09-06T12:22:58.383Z,-54
2016-09-06T12:23:58.518Z,-55
2016-09-06T12:24:58.402Z,-50
2016-09-06T12:25:58.361Z,-53
2016-09-06T12:26:58.218Z,-52
2016-09-06T12:27:58.129Z,-55
2016-09-06T12:28:58.367Z,-51
2016-09-06T12:29:58.035Z,-53
2016-09-06T12:30:58.797Z,-53
2016-09-06T12:31:58.192Z,-56
2016-09-06T12:32:57.766Z,-54
2016-09-06T12:33:58.006Z,-55
2016-09-06T12:34:58.282Z,-52
2016-09-06T12:35:58.297Z,-52
2016-09-06T12:36:58.099Z,-55
2016-09-06T12:37:58.398Z,-53
2016-09-06T12:38:58.420Z,-56
2016-09-06T12:39:58.334Z,-54
2016-09-06T12:40:58.175Z,-57
2016-09-06T12:41:58.159Z,-54
2016-09-06T12:42:58.341Z,-56
2016-09-06T12:43:58.255Z,-54
2016-09-06T12:44:58.207Z,-54
2016-09-06T12:45:57.825Z,-54
2016-09-06T12:46:57.872Z,-52
2016-09-06T12:47:57.855Z,-52
2016-09-06T12:48:57.880Z,-53
2016-09-06T12:49:57.872Z,-51
2016-09-06T12:50:57.842Z,-52
2016-09-06T12:51:57.771Z,-52
2016-09-06T12:52:57.759Z,-50
2016-09-06T12:53:57.782Z,-50
2016-09-06T12:54:57.846Z,-53
2016-09-06T12:55:57.827Z,-51
2016-09-06T12:56:57.744Z,-53
2016-09-06T12:57:57.768Z,-51
2016-09-06T12:58:57.889Z,-53
2016-09-06T12:59:57.825Z,-54
2016-09-06T13:00:57.815Z,-55
2016-09-06T13:01:57.892Z,-54
2016-09-06T13:02:57.870Z,-54
2016-09-06T13:03:57.811Z,-53
2016-09-06T13:04:57.839Z,-55
2016-09-06T13:05:57.879Z,-52
2016-09-06T13:06:57.823Z,-52
2016-09-06T13:07:57.835Z,-51
2016-09-06T13:08:57.802Z,-53
2016-09-06T13:09:57.857Z,-53
2016-09-06T13:10:57.857Z,-53
2016-09-06T13:11:57.880Z,-53
2016-09-06T13:12:57.873Z,-52
2016-09-06T13:13:57.820Z,-55
2016-09-06T13:14:57.860Z,-53
2016-09-06T13:15:57.951Z,-55
2016-09-06T13:16:58.144Z,-53
2016-09-06T13:17:57.923Z,-53
2016-09-06T13:18:57.919Z,-54
2016-09-06T13:19:58.046Z,-55
2016-09-06T13:20:58.064Z,-53
2016-09-06T13:21:57.891Z,-53
2016-09-06T13:22:57.769Z,-53
2016-09-06T13:23:57.824Z,-52
2016-09-06T13:24:57.830Z,-49
2016-09-06T13:25:59.105Z,-52
2016-09-06T13:26:58.128Z,-54
2016-09-06T13:27:57.994Z,-56
2016-09-06T13:28:58.011Z,-51
2016-09-06T13:29:57.879Z,-53
2016-09-06T13:30:57.804Z,-54
2016-09-06T13:31:57.918Z,-56
2016-09-06T13:32:57.874Z,-55
2016-09-06T13:33:57.812Z,-53
2016-09-06T13:34:57.851Z,-54
2016-09-06T13:35:57.859Z,-54
2016-09-06T13:36:57.818Z,-55
2016-09-06T13:37:57.832Z,-53
2016-09-06T13:38:58.050Z,-49
2016-09-06T13:39:58.909Z,-53
2016-09-06T13:40:59.268Z,-52
2016-09-06T13:41:58.596Z,-55
2016-09-06T13:42:59.429Z,-54
2016-09-06T13:43:58.898Z,-54
2016-09-06T13:44:58.223Z,-57
2016-09-06T13:45:58.228Z,-56
2016-09-06T13:46:58.353Z,-54
2016-09-06T13:47:58.406Z,-54
2016-09-06T13:48:58.522Z,-56
2016-09-06T13:49:58.365Z,-54
2016-09-06T13:50:58.802Z,-55
2016-09-06T13:51:58.730Z,-55